Date,TemperatureHighF,TemperatureAvgF,TemperatureLowF,DewpointHighF,DewpointAvgF,DewpointLowF,HumidityHigh,HumidityAvg,HumidityLow,PressureMaxIn,PressureMinIn,WindSpeedMaxMPH,WindSpeedAvgMPH,GustSpeedMaxMPH,PrecipitationSumIn
2013-2-1,39,28,17,30,11,2,80,50,27,28.20,27.90,10,1,10,0.00
2013-2-2,34,28,20,32,19,7,95,68,47,28.17,27.90,7,1,7,0.00
2013-2-3,52,37,29,32,27,21,94,68,39,27.99,27.88,9,1,9,0.00
2013-2-4,50,37,25,27,23,20,82,59,39,27.96,27.85,5,0,5,0.00
2013-2-5,62,48,39,44,36,24,93,67,43,27.93,27.82,4,0,4,0.00
2013-2-6,65,50,40,42,32,26,91,52,35,28.05,27.93,6,0,6,0.00
2013-2-7,52,48,45,45,33,25,94,58,40,28.02,27.82,5,0,5,0.00
2013-2-8,54,43,32,46,38,27,98,83,52,28.08,27.79,6,1,6,0.00
2013-2-9,58,42,28,28,24,19,89,55,25,28.17,28.08,7,1,7,0.00
2013-2-10,52,47,43,49,34,24,98,64,37,28.11,27.90,11,2,11,0.00
2013-2-11,53,49,42,52,40,25,98,74,44,27.99,27.88,8,1,8,0.00
2013-2-12,51,43,37,36,27,22,83,55,41,28.02,27.73,0,0,0,0.00
2013-2-13,40,39,39,37,35,33,94,85,75,27.73,27.67,0,0,0,0.00
2013-2-16,39,30,22,18,13,6,71,49,38,27.99,27.88,5,2,5,0.00
2013-2-17,47,31,19,17,7,-10,51,38,9,28.11,27.96,2,2,2,0.00
2013-2-18,59,44,32,31,20,11,42,38,33,28.11,27.88,2,2,2,0.00
2013-2-19,52,41,32,42,23,-12,98,58,8,28.05,27.82,2,2,2,0.00
2013-2-20,41,32,24,16,11,8,57,42,30,28.08,27.99,4,1,4,0.00
2013-2-21,54,38,27,40,16,-10,98,47,7,28.02,27.82,0,0,0,0.00
2013-2-22,44,42,40,44,41,39,98,98,96,27.96,27.85,0,0,0,0.00
2013-2-23,61,47,38,51,43,34,98,88,60,27.90,27.76,0,0,0,0.00
2013-2-24,62,44,32,34,27,19,85,53,26,27.93,27.82,0,0,0,0.00
2013-2-25,55,45,38,41,25,17,86,46,37,27.90,27.67,6,1,6,0.00
2013-2-26,45,40,35,42,38,31,98,92,69,27.67,27.43,3,1,3,0.00
2013-2-27,52,40,34,34,31,26,95,72,46,27.76,27.61,0,0,0,0.00
2013-2-28,35,33,32,27,23,20,76,66,57,27.88,27.70,0,0,0,0.00